Time;durP1;ratioP1;P1;durP2;ratioP2;P2;SDS_P1;SDS_P2;PMS_P1;PMS_P2;Temp;Humidity;BMP_temperature;BMP_pressure;BME280_temperature;BME280_humidity;BME280_pressure;Samples;Min_cycle;Max_cycle;Signal;HPM_P1;HPM_P2
2022/08/04 00:00:15;;;;;;;;;;;21.90;65.30;;;21.26;60.35;96412.06;4183533;33;20162;-87
2022/08/04 00:02:52;;;;;;;;;;;21.90;65.30;;;21.28;60.55;96420.09;4206261;33;19910;-86
2022/08/04 00:05:30;;;;;;;;;;;21.90;65.30;;;21.27;60.31;96412.88;4206624;33;20124;-86
2022/08/04 00:08:07;;;;;;;;;;;21.90;65.30;;;21.28;60.09;96420.09;4183349;33;19902;-85
2022/08/04 00:10:35;;;;;;;;;;;21.90;65.30;;;21.26;60.55;96416.81;4207576;33;19902;-88
2022/08/04 00:13:05;;;;;;;;;;;21.90;65.30;;;21.26;60.09;96419.59;4182798;33;19902;-86
2022/08/04 00:15:35;;;;;;;;;;;21.90;65.20;;;21.26;60.47;96416.81;4183525;33;19903;-87
2022/08/04 00:18:05;;;;;;;;;;;21.80;65.20;;;21.25;60.48;96421.59;4206346;33;19917;-86
2022/08/04 00:20:37;;;;;;;;;;;21.80;65.30;;;21.25;60.37;96417.97;4206568;33;19974;-86
2022/08/04 00:23:05;;;;;;;;;;;21.80;65.20;;;21.25;60.51;96417.97;4205898;33;19925;-85
2022/08/04 00:25:34;;;;;;;;;;;21.80;65.10;;;21.25;60.31;96420.75;4206343;33;19903;-86
2022/08/04 00:28:03;;;;;;;;;;;21.80;65.20;;;21.24;60.79;96416.31;4206196;33;19902;-87
2022/08/04 00:30:32;;;;;;;;;;;21.80;65.30;;;21.24;60.17;96416.31;4182613;33;20133;-87
2022/08/04 00:33:02;;;;;;;;;;;21.80;65.10;;;21.23;60.39;96418.31;4205776;33;19903;-87
2022/08/04 00:35:31;;;;;;;;;;;21.80;65.20;;;21.22;60.26;96421.44;4206417;33;19909;-87
2022/08/04 00:38:00;;;;;;;;;;;21.80;65.20;;;21.22;60.41;96425.03;4206385;33;20137;-87
2022/08/04 00:40:33;;;;;;;;;;;21.80;65.20;;;21.23;60.38;96425.88;4183364;33;20026;-86
2022/08/04 00:43:12;;;;;;;;;;;21.80;65.20;;;21.22;60.35;96421.44;4206753;33;19903;-87
2022/08/04 00:46:40;;;;;;;;;;;21.80;65.20;;;21.22;60.36;96421.44;4183055;33;20014;-85
2022/08/04 00:49:36;;;;;;;;;;;21.80;65.20;;;21.21;60.19;96425.38;4186507;33;20152;-85
2022/08/04 00:52:18;;;;;;;;;;;21.80;65.20;;;21.21;60.35;96420.59;4229165;33;19910;-86
2022/08/04 00:55:02;;;;;;;;;;;21.80;65.30;;;21.20;60.47;96418.97;4182904;33;20107;-85
2022/08/04 00:57:39;;;;;;;;;;;21.80;65.30;;;21.20;60.28;96418.16;4183042;33;19903;-86
2022/08/04 01:00:10;;;;;;;;;;;21.80;65.30;;;21.19;60.54;96416.53;4182646;33;20008;-85
2022/08/04 01:02:57;;;;;;;;;;;21.80;65.30;;;21.18;60.49;96420.47;4203091;33;19910;-86
2022/08/04 01:05:36;;;;;;;;;;;21.80;65.30;;;21.19;60.27;96427.66;4234998;33;19902;-87
2022/08/04 01:08:24;;;;;;;;;;;21.80;65.20;;;21.19;60.15;96422.09;4234060;33;19982;-86
2022/08/04 01:10:59;;;;;;;;;;;21.80;65.10;;;21.18;60.75;96423.25;4210504;33;19903;-86
2022/08/04 01:13:53;;;;;;;;;;;21.80;65.30;;;21.18;60.27;96421.28;4210159;33;19909;-86
2022/08/04 01:16:25;;;;;;;;;;;21.80;65.30;;;21.17;60.40;96418.84;4210437;33;19999;-85
2022/08/04 01:18:59;;;;;;;;;;;21.80;65.40;;;21.17;60.51;96425.22;4210458;33;19902;-85
2022/08/04 01:22:20;;;;;;;;;;;21.80;65.30;;;21.17;60.49;96424.41;4210408;33;19917;-86
2022/08/04 01:25:09;;;;;;;;;;;21.80;65.40;;;21.17;60.28;96421.63;4230703;33;20153;-87
2022/08/04 01:28:01;;;;;;;;;;;21.80;65.30;;;21.16;60.45;96423.59;4194869;33;20349;-86
2022/08/04 01:30:31;;;;;;;;;;;21.70;65.40;;;21.15;60.54;96410.81;4182590;33;20138;-87
2022/08/04 01:33:03;;;;;;;;;;;21.70;65.30;;;21.14;60.45;96415.56;4224045;33;19902;-87
2022/08/04 01:35:37;;;;;;;;;;;21.70;65.40;;;21.14;60.57;96421.13;4210411;33;20240;-86
2022/08/04 01:38:09;;;;;;;;;;;21.70;65.40;;;21.12;60.41;96415.06;4210545;33;19909;-86
2022/08/04 01:40:38;;;;;;;;;;;21.70;65.30;;;21.13;60.34;96416.72;4210226;33;20102;-87
2022/08/04 01:43:07;;;;;;;;;;;21.70;65.40;;;21.13;60.38;96415.91;4209656;33;20317;-87
2022/08/04 01:45:37;;;;;;;;;;;21.70;65.30;;;21.13;60.42;96416.72;4210332;33;20133;-87
2022/08/04 01:48:06;;;;;;;;;;;21.70;65.30;;;21.12;60.44;96406.72;4210188;33;19989;-86
2022/08/04 01:50:36;;;;;;;;;;;21.70;65.30;;;21.11;60.55;96405.09;4233773;33;19910;-86
2022/08/04 01:53:04;;;;;;;;;;;21.70;65.30;;;21.12;60.50;96406.72;4233192;33;19902;-87
2022/08/04 01:55:33;;;;;;;;;;;21.70;65.40;;;21.12;60.50;96405.91;4233563;33;19902;-86
2022/08/04 01:58:02;;;;;;;;;;;21.70;65.50;;;21.11;60.54;96405.09;4209974;33;20129;-86
2022/08/04 02:00:31;;;;;;;;;;;21.70;65.50;;;21.11;60.34;96410.66;4209296;33;19902;-85
2022/08/04 02:03:01;;;;;;;;;;;21.70;65.40;;;21.10;60.51;96411.84;4209472;33;20343;-86
2022/08/04 02:05:30;;;;;;;;;;;21.70;65.50;;;21.09;60.42;96407.41;4210059;33;19903;-86
2022/08/04 02:08:20;;;;;;;;;;;21.70;65.30;;;21.09;60.59;96403.81;4209979;33;20236;-86
2022/08/04 02:10:59;;;;;;;;;;;21.70;65.50;;;21.09;60.47;96404.63;4210023;33;20065;-85
2022/08/04 02:13:33;;;;;;;;;;;21.70;65.40;;;21.09;60.52;96401.84;4209635;33;19902;-86
2022/08/04 02:16:03;;;;;;;;;;;21.70;65.50;;;21.09;60.63;96404.63;4209927;33;19902;-87
2022/08/04 02:18:46;;;;;;;;;;;21.70;65.50;;;21.09;60.56;96412.16;4233234;33;19925;-87
2022/08/04 02:21:15;;;;;;;;;;;21.70;65.50;;;21.06;60.49;96404.47;4209830;33;20139;-86
2022/08/04 02:23:44;;;;;;;;;;;21.70;65.40;;;21.08;60.57;96405.78;4232891;33;19925;-85
2022/08/04 02:26:17;;;;;;;;;;;21.70;65.40;;;21.08;60.50;96404.94;4209891;33;20240;-86
2022/08/04 02:28:48;;;;;;;;;;;21.70;65.40;;;21.06;60.59;96407.25;4225883;28;19979;-82
2022/08/04 02:31:24;;;;;;;;;;;21.70;65.50;;;21.06;60.32;96396.94;4181942;33;19910;-82
2022/08/04 02:34:01;;;;;;;;;;;21.70;65.40;;;21.05;60.51;96406.44;4204536;33;19903;-82
2022/08/04 02:36:32;;;;;;;;;;;21.70;65.50;;;21.05;60.47;96406.44;4181870;33;19910;-82
2022/08/04 02:39:01;;;;;;;;;;;21.60;65.30;;;21.06;60.51;96410.03;4176508;34;20011;-82
2022/08/04 02:41:31;;;;;;;;;;;21.60;65.30;;;21.06;60.53;96408.06;4175987;34;20241;-82
2022/08/04 02:44:00;;;;;;;;;;;21.60;65.40;;;21.05;60.48;96417.56;4177519;34;20372;-82
2022/08/04 02:46:30;;;;;;;;;;;21.60;65.30;;;21.04;60.50;96404.81;4176977;34;19903;-82
2022/08/04 02:49:02;;;;;;;;;;;21.60;65.30;;;21.05;60.42;96406.44;4177016;34;19924;-82
2022/08/04 02:51:33;;;;;;;;;;;21.60;65.30;;;21.04;60.64;96404.00;4177109;34;19910;-82
2022/08/04 02:54:04;;;;;;;;;;;21.60;65.40;;;21.03;60.42;96400.38;4177976;34;19910;-82
2022/08/04 02:56:34;;;;;;;;;;;21.60;65.30;;;21.03;60.16;96402.38;4179495;34;19903;-83
2022/08/04 02:59:06;;;;;;;;;;;21.60;65.30;;;21.02;60.59;96401.53;4180466;34;19955;-82
2022/08/04 03:01:35;;;;;;;;;;;21.60;65.30;;;21.01;60.37;96399.91;4179503;34;19903;-82
2022/08/04 03:04:20;;;;;;;;;;;21.60;65.40;;;21.03;60.62;96407.94;4180030;34;20476;-82
2022/08/04 03:07:47;;;;;;;;;;;21.60;65.30;;;21.01;60.57;96408.25;4180300;34;20147;-82
2022/08/04 03:11:02;;;;;;;;;;;21.60;65.40;;;21.02;60.47;96423.00;4128401;34;20131;-83
2022/08/04 03:14:06;;;;;;;;;;;21.60;65.50;;;21.01;60.51;96416.59;4178743;33;20182;-81
2022/08/04 03:17:26;;;;;;;;;;;21.60;65.40;;;21.01;60.41;96427.72;4153314;34;19910;-81
2022/08/04 03:20:34;;;;;;;;;;;21.60;65.60;;;21.00;60.58;96426.94;4154670;34;19909;-81
2022/08/04 03:23:54;;;;;;;;;;;21.60;65.50;;;21.00;60.60;96423.31;4178802;34;20362;-82
2022/08/04 03:27:07;;;;;;;;;;;21.60;65.40;;;20.99;60.48;96419.72;4179262;34;20347;-81
2022/08/04 03:30:05;;;;;;;;;;;21.60;65.50;;;20.99;60.68;96422.50;4178912;33;20029;-81
2022/08/04 03:33:35;;;;;;;;;;;21.60;65.60;;;21.00;60.68;96428.88;4171010;34;19903;-82
2022/08/04 03:37:01;;;;;;;;;;;21.60;65.60;;;21.01;60.55;96433.28;4142694;34;19903;-81
2022/08/04 03:40:21;;;;;;;;;;;21.60;65.60;;;21.03;60.49;96433.78;4124394;34;19904;-81
2022/08/04 03:43:33;;;;;;;;;;;21.60;65.50;;;21.02;60.67;96434.94;4120026;34;20094;-81
2022/08/04 03:46:30;;;;;;;;;;;21.60;65.40;;;21.04;60.72;96438.22;4124245;34;20150;-81
2022/08/04 03:49:29;;;;;;;;;;;21.60;65.60;;;21.05;60.42;96439.00;4124392;34;19911;-82
2022/08/04 03:55:37;;;;;;;;;;;21.70;65.50;;;21.08;60.49;96441.97;4101930;34;20215;-81
2022/08/04 03:58:58;;;;;;;;;;;21.70;65.20;;;21.10;60.32;96442.44;4075070;34;20145;-82
2022/08/04 04:01:48;;;;;;;;;;;21.70;65.30;;;21.11;59.98;96440.47;4101997;34;19904;-81
2022/08/04 04:05:04;;;;;;;;;;;21.70;65.00;;;21.13;60.17;96441.75;4137609;34;20171;-82
2022/08/04 04:08:15;;;;;;;;;;;21.70;64.70;;;21.14;59.86;96446.19;4128782;34;19904;-81
2022/08/04 04:11:12;;;;;;;;;;;21.70;64.80;;;21.17;59.85;96446.66;4128775;34;19994;-81
2022/08/04 04:14:14;;;;;;;;;;;21.80;64.50;;;21.19;59.45;96445.19;4128115;34;19903;-81
2022/08/04 04:17:00;;;;;;;;;;;21.80;64.40;;;21.21;59.82;96453.22;4128494;34;20329;-82
2022/08/04 04:20:13;;;;;;;;;;;21.80;64.60;;;21.23;59.65;96445.34;4151233;34;19904;-82
2022/08/04 04:22:58;;;;;;;;;;;21.80;64.50;;;21.24;59.79;96452.53;4052128;34;19905;-81
2022/08/04 04:25:39;;;;;;;;;;;21.90;64.60;;;21.25;59.74;96455.00;4122579;34;19955;-81
2022/08/04 04:28:39;;;;;;;;;;;21.90;64.60;;;21.28;60.09;96459.06;4151186;34;19911;-81
2022/08/04 04:31:27;;;;;;;;;;;21.90;65.00;;;21.29;60.47;96455.13;4123132;34;20438;-81
2022/08/04 04:34:05;;;;;;;;;;;21.90;65.50;;;21.31;60.92;96458.41;4150559;34;19903;-82
2022/08/04 04:36:38;;;;;;;;;;;21.90;65.80;;;21.32;61.42;96454.47;4150931;34;20065;-83
2022/08/04 04:39:14;;;;;;;;;;;22.00;65.90;;;21.34;60.83;96452.19;4150900;34;19911;-82
2022/08/04 04:42:14;;;;;;;;;;;22.00;65.80;;;21.37;60.90;96451.47;4151856;34;20381;-81
2022/08/04 04:45:09;;;;;;;;;;;22.00;65.80;;;21.39;60.92;96451.16;4150921;34;19904;-81
2022/08/04 04:47:51;;;;;;;;;;;22.00;65.80;;;21.42;60.89;96456.06;4150821;34;20130;-81
2022/08/04 04:50:26;;;;;;;;;;;22.10;65.80;;;21.44;60.99;96456.53;4151779;34;19904;-81
2022/08/04 04:52:58;;;;;;;;;;;22.10;65.60;;;21.45;60.78;96456.22;4127596;34;19903;-81
2022/08/04 04:55:30;;;;;;;;;;;22.10;65.80;;;21.49;60.84;96455.56;4128138;34;19911;-81
2022/08/04 04:58:00;;;;;;;;;;;22.10;66.50;;;21.49;60.66;96450.78;4151508;34;20291;-81
2022/08/04 05:00:49;;;;;;;;;;;22.10;65.60;;;21.51;61.01;96453.22;4128016;34;19911;-81
2022/08/04 05:03:49;;;;;;;;;;;22.20;65.70;;;21.52;60.53;96452.91;4127570;34;19904;-81
2022/08/04 05:06:42;;;;;;;;;;;22.20;65.60;;;21.53;60.73;96454.53;4127637;34;20068;-82
2022/08/04 05:09:24;;;;;;;;;;;22.20;65.60;;;21.53;60.71;96451.75;4150625;34;20224;-81
2022/08/04 05:12:40;;;;;;;;;;;22.20;65.60;;;21.53;60.93;96454.53;4127811;34;19910;-82
2022/08/04 05:15:11;;;;;;;;;;;22.20;65.60;;;21.54;60.87;96445.03;4127924;34;19911;-82
2022/08/04 05:17:41;;;;;;;;;;;22.20;65.80;;;21.55;60.72;96445.84;4127528;34;19911;-82
2022/08/04 05:20:12;;;;;;;;;;;22.20;65.70;;;21.55;61.18;96451.41;4128066;34;20147;-82
2022/08/04 05:22:57;;;;;;;;;;;22.20;65.80;;;21.55;60.91;96451.41;4149742;34;19910;-81
2022/08/04 05:25:37;;;;;;;;;;;22.20;65.70;;;21.57;60.98;96454.69;4150497;34;20249;-81
2022/08/04 05:28:13;;;;;;;;;;;22.20;65.80;;;21.56;60.85;96458.63;4127903;34;19904;-82
2022/08/04 05:30:48;;;;;;;;;;;22.20;65.70;;;21.57;60.91;96449.91;4128073;34;19926;-81
2022/08/04 05:33:19;;;;;;;;;;;22.20;65.80;;;21.59;60.83;96460.72;4149989;34;20298;-81
2022/08/04 05:35:50;;;;;;;;;;;22.20;65.60;;;21.59;60.67;96457.94;4127970;34;19910;-82
2022/08/04 05:38:21;;;;;;;;;;;22.20;65.50;;;21.62;60.77;96454.53;4150878;34;19911;-82
2022/08/04 05:40:49;;;;;;;;;;;22.20;65.60;;;21.65;60.82;96455.81;4152480;34;19903;-82
2022/08/04 05:43:18;;;;;;;;;;;22.30;65.60;;;21.69;60.72;96452.00;4150578;34;19926;-82
2022/08/04 05:45:48;;;;;;;;;;;22.30;65.70;;;21.74;60.67;96460.19;4150219;34;19926;-82
2022/08/04 05:48:17;;;;;;;;;;;22.30;65.60;;;21.81;60.43;96458.81;4127428;34;19903;-82
2022/08/04 05:50:46;;;;;;;;;;;22.40;65.70;;;21.85;60.51;96454.22;4127709;34;19903;-82
2022/08/04 05:53:15;;;;;;;;;;;22.40;65.40;;;21.89;60.51;96455.97;4127035;34;19903;-82
2022/08/04 05:55:44;;;;;;;;;;;22.50;65.50;;;21.93;60.36;96456.13;4150175;34;19911;-82
2022/08/04 05:58:13;;;;;;;;;;;22.50;65.40;;;21.97;60.07;96461.81;4150082;34;19904;-82
2022/08/04 06:00:42;;;;;;;;;;;22.50;65.20;;;22.00;60.30;96461.16;4150322;34;20101;-82
2022/08/04 06:03:18;;;;;;;;;;;22.60;65.10;;;22.02;60.09;96456.06;4126911;34;19904;-82
2022/08/04 06:05:47;;;;;;;;;;;22.60;64.90;;;22.03;60.28;96466.84;4151176;34;19903;-83
2022/08/04 06:08:18;;;;;;;;;;;22.60;64.80;;;22.05;60.09;96466.53;4127113;34;20127;-83
2022/08/04 06:10:50;;;;;;;;;;;22.70;64.80;;;22.07;59.97;96467.81;4150123;34;19911;-82
2022/08/04 06:13:20;;;;;;;;;;;22.70;64.80;;;22.07;59.79;96467.81;4149562;34;20454;-83
2022/08/04 06:15:49;;;;;;;;;;;22.70;64.70;;;22.10;59.87;96471.91;4127671;34;19910;-83
2022/08/04 06:18:19;;;;;;;;;;;22.70;64.80;;;22.11;59.75;96467.16;4127333;34;19910;-83
2022/08/04 06:20:48;;;;;;;;;;;22.70;64.60;;;22.13;60.01;96470.41;4149871;34;19912;-83
2022/08/04 06:23:17;;;;;;;;;;;22.70;64.70;;;22.13;59.91;96465.66;4150269;34;19903;-83
2022/08/04 06:25:48;;;;;;;;;;;22.70;64.50;;;22.16;59.69;96466.94;4150086;34;19910;-83
2022/08/04 06:28:16;;;;;;;;;;;22.80;64.50;;;22.17;60.12;96472.19;4149353;34;19966;-83
2022/08/04 06:30:48;;;;;;;;;;;22.80;64.40;;;22.17;59.65;96465.78;4150410;34;19912;-83
2022/08/04 06:33:26;;;;;;;;;;;22.80;64.40;;;22.18;59.92;96461.84;4149355;34;19986;-82
2022/08/04 06:35:56;;;;;;;;;;;22.80;64.40;;;22.19;59.64;96460.69;4127153;34;20032;-82
2022/08/04 06:38:26;;;;;;;;;;;22.80;64.50;;;22.20;59.69;96465.09;4149562;34;20142;-83
2022/08/04 06:40:56;;;;;;;;;;;22.80;64.40;;;22.20;59.63;96457.53;4127178;34;19903;-83
2022/08/04 06:43:25;;;;;;;;;;;22.80;64.60;;;22.22;60.00;96455.22;4149213;34;19903;-82
2022/08/04 06:45:54;;;;;;;;;;;22.80;64.50;;;22.23;59.68;96453.28;4126969;34;19918;-83
2022/08/04 06:48:23;;;;;;;;;;;22.80;64.40;;;22.25;59.57;96456.53;4126994;34;19904;-82
2022/08/04 06:50:51;;;;;;;;;;;22.80;64.30;;;22.27;59.75;96465.38;4149594;34;19903;-82
2022/08/04 06:53:21;;;;;;;;;;;22.90;64.40;;;22.29;59.76;96463.06;4126392;34;20163;-83
2022/08/04 06:55:50;;;;;;;;;;;22.90;64.40;;;22.31;59.84;96469.13;4126917;34;19904;-82
2022/08/04 06:58:20;;;;;;;;;;;22.90;64.40;;;22.32;59.70;96456.00;4149597;34;20163;-83
2022/08/04 07:00:49;;;;;;;;;;;22.90;64.30;;;22.33;59.43;96452.84;4126975;34;19904;-83
2022/08/04 07:03:20;;;;;;;;;;;22.90;64.30;;;22.35;59.63;96458.91;4126386;34;19908;-83
2022/08/04 07:05:49;;;;;;;;;;;22.90;64.30;;;22.35;59.28;96461.72;4150571;34;19991;-83
2022/08/04 07:08:17;;;;;;;;;;;22.90;64.20;;;22.38;59.36;96455.44;4126826;34;20088;-83
2022/08/04 07:10:47;;;;;;;;;;;22.90;64.20;;;22.38;59.36;96455.44;4126887;34;19911;-82
2022/08/04 07:13:16;;;;;;;;;;;22.90;64.20;;;22.42;59.39;96455.59;4126457;34;20108;-83
2022/08/04 07:15:47;;;;;;;;;;;23.00;64.10;;;22.43;59.09;96454.44;4149442;34;20241;-83
2022/08/04 07:18:15;;;;;;;;;;;23.00;64.00;;;22.46;59.34;96458.53;4126612;34;20008;-83
2022/08/04 07:20:44;;;;;;;;;;;23.00;64.10;;;22.48;59.28;96450.63;4150475;34;19904;-83
2022/08/04 07:23:16;;;;;;;;;;;23.00;64.00;;;22.50;58.99;96453.91;4148730;34;19919;-83
2022/08/04 07:25:44;;;;;;;;;;;23.00;63.90;;;22.51;59.49;96450.75;4126714;34;19993;-83
2022/08/04 07:28:15;;;;;;;;;;;23.00;63.90;;;22.53;59.23;96450.41;4148749;34;19904;-83
2022/08/04 07:30:44;;;;;;;;;;;23.10;64.00;;;22.53;58.92;96448.44;4126674;34;19904;-83
2022/08/04 07:33:12;;;;;;;;;;;23.10;63.90;;;22.57;58.66;96448.56;4126366;34;19904;-83
2022/08/04 07:35:41;;;;;;;;;;;23.10;63.80;;;22.58;58.77;96446.59;4149236;34;19952;-83
2022/08/04 07:38:10;;;;;;;;;;;23.10;63.80;;;22.59;58.96;96449.03;4149191;34;19904;-83
2022/08/04 07:40:39;;;;;;;;;;;23.10;63.80;;;22.60;58.50;96445.09;4127673;34;19911;-83
2022/08/04 07:43:10;;;;;;;;;;;23.10;63.60;;;22.61;58.87;96445.91;4152088;34;19910;-83
2022/08/04 07:45:44;;;;;;;;;;;23.10;63.70;;;22.60;58.61;96439.50;4151642;34;19903;-82
2022/08/04 07:48:14;;;;;;;;;;;23.10;63.50;;;22.61;58.80;96448.69;4151525;34;19910;-83
2022/08/04 07:50:43;;;;;;;;;;;23.20;63.50;;;22.61;58.71;96445.91;4128812;34;19966;-82
2022/08/04 07:53:12;;;;;;;;;;;23.10;63.30;;;22.62;58.79;96451.16;4128362;34;19904;-83
2022/08/04 07:55:45;;;;;;;;;;;23.10;63.40;;;22.62;58.52;96453.94;4152395;34;19903;-83
2022/08/04 07:58:14;;;;;;;;;;;23.20;63.50;;;22.63;58.39;96444.41;4152293;34;20134;-83
2022/08/04 08:00:45;;;;;;;;;;;23.20;63.40;;;22.63;58.67;96455.56;4151554;34;20481;-82
2022/08/04 08:03:13;;;;;;;;;;;23.20;63.20;;;22.64;58.58;96445.22;4150909;34;20228;-82
2022/08/04 08:05:42;;;;;;;;;;;23.20;63.20;;;22.64;58.62;96450.81;4152331;34;19904;-82
2022/08/04 08:08:11;;;;;;;;;;;23.20;63.20;;;22.64;58.34;96460.00;4151423;34;20026;-83
2022/08/04 08:10:39;;;;;;;;;;;23.20;63.20;;;22.65;58.73;96450.47;4152284;34;19903;-82
2022/08/04 08:13:08;;;;;;;;;;;23.20;63.20;;;22.65;58.72;96453.25;4150895;34;19904;-82
2022/08/04 08:15:37;;;;;;;;;;;23.20;63.20;;;22.65;58.55;96447.69;4151034;34;19904;-82
2022/08/04 08:18:07;;;;;;;;;;;23.20;63.20;;;22.65;58.47;96444.91;4128586;34;20113;-83
2022/08/04 08:20:35;;;;;;;;;;;23.20;63.20;;;22.66;58.24;96448.47;4128614;34;20170;-82
2022/08/04 08:23:06;;;;;;;;;;;23.20;63.20;;;22.65;58.30;96446.84;4128136;34;20097;-83
2022/08/04 08:25:35;;;;;;;;;;;23.20;63.20;;;22.64;58.48;96446.06;4128642;34;19911;-83
2022/08/04 08:28:04;;;;;;;;;;;23.20;63.20;;;22.63;58.50;96443.59;4128594;34;20377;-82
2022/08/04 08:30:33;;;;;;;;;;;23.20;63.10;;;22.64;58.57;96442.44;4168163;28;19909;-87
2022/08/04 08:33:07;;;;;;;;;;;23.20;63.10;;;22.62;58.63;96448.38;4150671;34;20226;-86
2022/08/04 08:35:49;;;;;;;;;;;23.20;63.20;;;22.61;58.91;96435.56;4151201;34;19911;-87
2022/08/04 08:38:19;;;;;;;;;;;23.20;63.30;;;22.61;58.85;96438.34;4150985;34;19903;-87
2022/08/04 08:40:53;;;;;;;;;;;23.10;63.20;;;22.58;58.58;96436.25;4128410;34;19910;-87
2022/08/04 08:43:49;;;;;;;;;;;23.10;63.20;;;22.56;58.77;96443.34;4150603;34;19919;-87
2022/08/04 08:47:00;;;;;;;;;;;23.20;63.30;;;22.54;58.81;96435.28;4148203;34;19904;-88
2022/08/04 08:49:59;;;;;;;;;;;23.20;63.30;;;22.51;58.70;96439.59;4137030;34;20168;-88
2022/08/04 08:52:37;;;;;;;;;;;23.10;64.20;;;22.50;58.84;96435.16;4127589;34;20100;-86
2022/08/04 08:55:26;;;;;;;;;;;23.10;63.50;;;22.49;58.62;96432.75;4128259;34;20095;-87
2022/08/04 08:58:07;;;;;;;;;;;23.10;63.60;;;22.47;59.13;96435.03;4128404;34;20023;-86
2022/08/04 09:00:46;;;;;;;;;;;23.10;63.50;;;22.46;58.87;96439.00;4128130;34;19903;-86
2022/08/04 09:03:41;;;;;;;;;;;23.10;63.70;;;22.44;59.28;96432.94;4150280;34;19904;-86
2022/08/04 09:06:29;;;;;;;;;;;23.00;63.70;;;22.44;59.03;96430.16;4150616;34;20004;-86
2022/08/04 09:09:21;;;;;;;;;;;23.10;63.90;;;22.42;59.21;96426.88;4150860;34;20442;-86
2022/08/04 09:11:55;;;;;;;;;;;23.00;63.90;;;22.42;59.24;96421.31;4150689;34;19911;-88
2022/08/04 09:14:34;;;;;;;;;;;23.00;64.00;;;22.39;59.81;96431.16;4127822;34;20163;-86
2022/08/04 09:17:05;;;;;;;;;;;23.00;64.20;;;22.37;59.83;96420.34;4150569;34;20100;-86
2022/08/04 09:23:30;;;;;;;;;;;23.00;64.30;;;22.37;59.55;96425.94;4127676;34;19899;-87
2022/08/04 09:26:04;;;;;;;;;;;23.00;64.40;;;22.34;59.74;96421.03;4150512;34;20090;-88
2022/08/04 09:28:41;;;;;;;;;;;23.00;64.40;;;22.35;59.85;96428.22;4128011;34;19903;-86
2022/08/04 09:31:14;;;;;;;;;;;22.90;64.40;;;22.35;59.55;96427.41;4150615;34;20134;-87
2022/08/04 09:33:48;;;;;;;;;;;23.00;64.40;;;22.34;59.63;96420.19;4127512;34;19914;-87
2022/08/04 09:36:32;;;;;;;;;;;22.90;64.50;;;22.34;59.81;96421.03;4150240;34;19911;-87
2022/08/04 09:39:12;;;;;;;;;;;22.90;64.40;;;22.34;60.01;96421.03;4127901;34;19904;-87
2022/08/04 09:41:51;;;;;;;;;;;23.00;64.50;;;22.33;59.82;96424.97;4127866;34;19903;-87
2022/08/04 09:44:31;;;;;;;;;;;23.00;64.60;;;22.34;59.66;96415.44;4127294;34;20130;-87
2022/08/04 09:47:05;;;;;;;;;;;23.00;64.40;;;22.33;60.01;96419.38;4127816;34;19999;-86
2022/08/04 09:49:38;;;;;;;;;;;23.00;64.40;;;22.31;59.96;96407.75;4150174;34;19904;-86
2022/08/04 09:52:17;;;;;;;;;;;22.90;64.40;;;22.33;59.79;96413.00;4126945;34;19989;-86
2022/08/04 09:54:51;;;;;;;;;;;22.90;64.40;;;22.33;59.79;96415.78;4127611;34;19934;-86
2022/08/04 09:57:30;;;;;;;;;;;22.90;64.50;;;22.33;59.90;96401.84;4150228;34;20028;-86
2022/08/04 10:00:02;;;;;;;;;;;22.90;64.60;;;22.33;60.11;96413.00;4130907;33;20094;-88
2022/08/04 10:02:42;;;;;;;;;;;23.00;64.40;;;22.30;60.05;96414.50;4205122;33;20060;-87
2022/08/04 10:10:17;;;;;;;;;;;22.90;64.60;;;22.32;60.08;96412.19;4181679;34;19899;-87
2022/08/04 10:13:03;;;;;;;;;;;23.00;64.60;;;22.31;59.58;96407.75;4127038;34;19903;-87
2022/08/04 10:15:36;;;;;;;;;;;22.90;64.50;;;22.30;59.64;96403.34;4161640;33;19902;-87
2022/08/04 10:18:15;;;;;;;;;;;22.90;64.70;;;22.27;59.81;96406.78;4181987;33;20256;-87
2022/08/04 10:20:55;;;;;;;;;;;22.90;64.70;;;22.28;59.86;96397.28;4170515;34;20211;-86
2022/08/04 10:23:34;;;;;;;;;;;22.90;64.70;;;22.26;60.07;96402.41;4149272;34;19903;-86
2022/08/04 10:26:16;;;;;;;;;;;22.90;64.60;;;22.26;60.29;96405.19;4150088;34;19959;-87
2022/08/04 10:28:54;;;;;;;;;;;22.90;64.80;;;22.28;60.16;96410.41;4127511;34;20171;-86
2022/08/04 10:31:27;;;;;;;;;;;22.90;64.80;;;22.27;60.23;96400.41;4150135;34;20430;-87
2022/08/04 10:34:00;;;;;;;;;;;22.90;64.80;;;22.27;59.88;96398.44;4126974;34;20338;-86
2022/08/04 10:36:33;;;;;;;;;;;22.90;64.90;;;22.26;60.02;96402.41;4174476;33;19926;-88
2022/08/04 10:39:08;;;;;;;;;;;22.90;64.80;;;22.26;59.91;96396.81;4181824;33;20222;-87
2022/08/04 10:41:42;;;;;;;;;;;22.90;64.80;;;22.26;60.34;96393.22;4205247;33;19916;-86
2022/08/04 10:44:23;;;;;;;;;;;22.90;64.80;;;22.26;60.10;96396.81;4204564;33;20238;-86
2022/08/04 10:46:54;;;;;;;;;;;22.90;64.90;;;22.25;59.89;96395.19;4181672;33;20019;-86
2022/08/04 10:49:24;;;;;;;;;;;22.90;64.90;;;22.24;59.87;96399.13;4181686;33;19902;-87
2022/08/04 10:51:56;;;;;;;;;;;22.90;64.90;;;22.24;60.02;96399.13;4181807;33;19929;-88
2022/08/04 10:54:29;;;;;;;;;;;22.90;64.90;;;22.24;60.15;96399.13;4204920;33;19902;-86
2022/08/04 10:57:04;;;;;;;;;;;22.80;64.80;;;22.21;60.08;96389.47;4181592;33;19910;-86
2022/08/04 10:59:38;;;;;;;;;;;22.80;64.80;;;22.20;60.35;96398.19;4204741;33;19935;-86
2022/08/04 11:02:18;;;;;;;;;;;22.80;65.00;;;22.19;60.04;96397.38;4204480;33;19911;-87
2022/08/04 11:04:48;;;;;;;;;;;22.80;65.00;;;22.18;60.44;96387.38;4181625;33;20125;-87
2022/08/04 11:07:17;;;;;;;;;;;22.80;65.10;;;22.17;60.61;96393.28;4181636;33;20210;-87
2022/08/04 11:09:45;;;;;;;;;;;22.80;65.10;;;22.16;60.24;96389.69;4181463;33;19903;-86
2022/08/04 11:12:19;;;;;;;;;;;22.80;65.00;;;22.18;60.21;96397.69;4181034;33;19903;-86
2022/08/04 11:14:54;;;;;;;;;;;22.80;65.10;;;22.16;60.11;96392.47;4205305;33;19954;-87
2022/08/04 11:17:26;;;;;;;;;;;22.70;65.10;;;22.15;60.46;96401.16;4208446;33;20054;-87
2022/08/04 11:20:01;;;;;;;;;;;22.70;65.00;;;22.14;60.16;96394.00;4184173;33;20443;-87
2022/08/04 11:22:30;;;;;;;;;;;22.70;65.10;;;22.14;60.16;96388.41;4192250;33;19910;-87
2022/08/04 11:25:08;;;;;;;;;;;22.70;65.10;;;22.14;60.29;96388.41;4159696;34;20062;-87
2022/08/04 11:27:44;;;;;;;;;;;22.70;65.20;;;22.15;60.35;96378.84;4159876;34;20028;-87
2022/08/04 11:30:13;;;;;;;;;;;22.70;65.20;;;22.15;60.27;96374.13;4160087;34;19911;-87
2022/08/04 11:32:46;;;;;;;;;;;22.70;65.20;;;22.17;60.10;96376.56;4174889;33;19902;-88
2022/08/04 11:35:19;;;;;;;;;;;22.80;65.10;;;22.17;60.66;96373.75;4187306;33;19902;-87
2022/08/04 11:37:50;;;;;;;;;;;22.80;65.30;;;22.17;60.53;96369.03;4187639;33;20370;-88
2022/08/04 11:40:24;;;;;;;;;;;22.80;65.20;;;22.18;60.33;96367.03;4210373;33;19913;-87
2022/08/04 11:42:57;;;;;;;;;;;22.80;65.20;;;22.18;60.45;96364.25;4210111;33;19910;-88
2022/08/04 11:45:34;;;;;;;;;;;22.80;65.10;;;22.19;60.51;96365.88;4187496;33;19925;-86
2022/08/04 11:48:06;;;;;;;;;;;22.80;65.20;;;22.19;60.22;96363.91;4211571;33;19903;-87
2022/08/04 11:50:37;;;;;;;;;;;22.80;65.20;;;22.20;60.23;96368.31;4185533;33;19903;-85
2022/08/04 11:53:06;;;;;;;;;;;22.80;65.20;;;22.20;60.33;96364.72;4191815;33;19986;-86
2022/08/04 11:55:34;;;;;;;;;;;22.80;65.10;;;22.21;60.23;96358.00;4157748;34;19903;-86
2022/08/04 11:58:05;;;;;;;;;;;22.80;65.10;;;22.21;60.17;96352.41;4157860;34;20002;-85
2022/08/04 12:00:33;;;;;;;;;;;22.80;65.10;;;22.22;60.25;96359.63;4179957;34;20137;-87
2022/08/04 12:03:25;;;;;;;;;;;22.80;65.00;;;22.23;60.18;96347.31;4179539;34;19910;-86
2022/08/04 12:06:08;;;;;;;;;;;22.80;65.00;;;22.23;60.21;96352.88;4156717;34;19950;-86
2022/08/04 12:09:04;;;;;;;;;;;22.80;64.80;;;22.22;60.17;96345.69;4179790;34;19904;-86
2022/08/04 12:11:56;;;;;;;;;;;22.80;64.90;;;22.21;60.13;96358.00;4156543;34;19911;-88
2022/08/04 12:14:44;;;;;;;;;;;22.80;64.90;;;22.19;60.23;96351.94;4156387;34;20020;-87
2022/08/04 12:17:13;;;;;;;;;;;22.80;65.00;;;22.19;60.27;96354.72;4156484;34;20143;-86